createdAt,value
2023-03-30T03:00:48.940Z,7.40
2023-03-30T03:03:42.413Z,3.40
2023-03-30T03:06:11.593Z,4.25
2023-03-30T03:08:41.976Z,4.50
2023-03-30T03:11:10.816Z,4.20
2023-03-30T03:13:38.426Z,5.07
2023-03-30T03:16:08.017Z,4.00
2023-03-30T03:18:35.375Z,4.43
2023-03-30T03:21:02.761Z,4.63
2023-03-30T03:23:30.449Z,4.15
2023-03-30T03:25:57.606Z,4.47
2023-03-30T03:28:24.863Z,4.43
2023-03-30T03:30:52.189Z,3.90
2023-03-30T03:33:20.483Z,4.38
2023-03-30T03:35:47.665Z,4.22
2023-03-30T03:38:15.396Z,4.65
2023-03-30T03:40:42.672Z,4.45
2023-03-30T03:43:09.875Z,3.97
2023-03-30T03:45:37.140Z,4.18
2023-03-30T03:48:04.351Z,3.80
2023-03-30T03:50:31.598Z,4.53
2023-03-30T03:52:58.816Z,3.17
2023-03-30T03:55:25.985Z,4.28
2023-03-30T03:57:53.101Z,3.95
2023-03-30T04:00:20.582Z,4.72
2023-03-30T04:02:47.829Z,4.95
2023-03-30T04:05:15.121Z,5.30
2023-03-30T04:07:42.326Z,4.95
2023-03-30T04:10:09.763Z,5.10
2023-03-30T04:12:37.022Z,5.25
2023-03-30T04:15:05.090Z,4.63
2023-03-30T04:17:36.982Z,4.30
2023-03-30T04:20:12.242Z,4.45
2023-03-30T04:22:41.972Z,5.55
2023-03-30T04:25:14.900Z,5.35
2023-03-30T04:27:45.460Z,4.95
2023-03-30T04:30:13.286Z,4.50
2023-03-30T04:32:41.418Z,5.43
2023-03-30T04:35:09.388Z,5.20
2023-03-30T04:37:38.385Z,4.75
2023-03-30T04:40:13.322Z,4.88
2023-03-30T04:42:40.572Z,4.90
2023-03-30T04:45:08.701Z,4.97
2023-03-30T04:47:36.342Z,4.88
2023-03-30T04:50:03.867Z,4.75
2023-03-30T04:52:31.051Z,4.80
2023-03-30T04:54:58.187Z,4.95
2023-03-30T04:57:25.448Z,4.10
2023-03-30T04:59:54.315Z,5.63
2023-03-30T05:02:22.206Z,5.10
2023-03-30T05:04:49.474Z,4.85
2023-03-30T05:07:16.644Z,5.25
2023-03-30T05:09:44.340Z,5.88
2023-03-30T05:12:11.500Z,5.97
2023-03-30T05:14:38.724Z,6.10
2023-03-30T05:17:05.979Z,6.43
2023-03-30T05:19:34.010Z,7.45
2023-03-30T05:22:01.560Z,7.38
2023-03-30T05:24:28.744Z,7.03
2023-03-30T05:26:56.374Z,6.10
2023-03-30T05:29:23.781Z,6.15
2023-03-30T05:31:51.301Z,5.43
2023-03-30T05:34:18.567Z,5.47
2023-03-30T05:36:46.079Z,5.25
2023-03-30T05:39:13.483Z,5.40
2023-03-30T05:41:40.777Z,5.60
2023-03-30T05:44:08.048Z,5.45
2023-03-30T05:46:35.660Z,5.30
2023-03-30T05:49:02.960Z,5.95
2023-03-30T05:51:30.102Z,5.78
2023-03-30T05:53:57.496Z,5.10
2023-03-30T05:56:25.160Z,6.40
2023-03-30T05:58:52.435Z,5.35
2023-03-30T06:01:21.382Z,6.28
2023-03-30T06:03:48.840Z,5.45
2023-03-30T06:06:16.518Z,6.40
2023-03-30T06:08:43.760Z,6.50
2023-03-30T06:11:11.369Z,6.18
2023-03-30T06:13:38.574Z,6.85
2023-03-30T06:16:06.114Z,5.82
2023-03-30T06:18:33.443Z,6.22
2023-03-30T06:21:02.725Z,5.07
2023-03-30T06:23:30.391Z,5.35
2023-03-30T06:25:57.687Z,5.38
2023-03-30T06:28:25.116Z,5.82
2023-03-30T06:30:52.279Z,6.55
2023-03-30T06:33:20.053Z,5.20
2023-03-30T06:35:52.567Z,5.95
2023-03-30T06:38:21.764Z,6.63
2023-03-30T06:40:49.090Z,5.20
2023-03-30T06:43:22.195Z,4.85
2023-03-30T06:45:51.284Z,6.00
2023-03-30T06:48:19.985Z,6.95
2023-03-30T06:50:47.550Z,5.10
2023-03-30T06:53:15.025Z,6.20
2023-03-30T06:55:42.649Z,5.85
2023-03-30T06:58:10.634Z,7.30
2023-03-30T07:00:38.019Z,6.13
2023-03-30T07:03:06.765Z,6.82
2023-03-30T07:05:34.550Z,4.82
2023-03-30T07:08:01.796Z,4.88
2023-03-30T07:10:29.067Z,5.88
2023-03-30T07:12:56.309Z,5.32
2023-03-30T07:15:24.425Z,5.20
2023-03-30T07:17:51.983Z,4.97
2023-03-30T07:20:20.407Z,5.57
2023-03-30T07:22:47.551Z,5.18
2023-03-30T07:25:14.908Z,5.30
2023-03-30T07:27:42.227Z,6.13
2023-03-30T07:30:21.272Z,5.90
2023-03-30T07:32:50.996Z,5.53
2023-03-30T07:35:18.678Z,5.00
2023-03-30T07:37:50.475Z,5.15
2023-03-30T07:40:19.091Z,6.03
2023-03-30T07:42:47.431Z,5.38
2023-03-30T07:45:16.428Z,5.45
2023-03-30T07:47:43.980Z,5.30
2023-03-30T07:50:11.438Z,4.70
2023-03-30T07:52:38.630Z,5.07
2023-03-30T07:55:07.782Z,5.70
2023-03-30T07:57:35.111Z,4.80
2023-03-30T08:00:02.711Z,5.53
2023-03-30T08:02:29.919Z,4.63
2023-03-30T08:04:58.163Z,4.97
2023-03-30T08:07:27.618Z,4.60
2023-03-30T08:09:54.831Z,4.68
2023-03-30T08:12:22.318Z,3.78
2023-03-30T08:14:49.518Z,3.60
2023-03-30T08:17:16.882Z,4.03
2023-03-30T08:19:44.109Z,4.50
2023-03-30T08:22:11.394Z,4.28
2023-03-30T08:24:38.575Z,4.13
2023-03-30T08:27:06.006Z,4.22
2023-03-30T08:29:33.727Z,4.22
2023-03-30T08:32:01.074Z,4.35
2023-03-30T08:34:29.109Z,4.25
2023-03-30T08:36:58.010Z,4.45
2023-03-30T08:39:25.621Z,6.20
2023-03-30T08:42:04.795Z,5.28
2023-03-30T08:44:39.346Z,5.05
2023-03-30T08:47:22.168Z,4.70
2023-03-30T08:50:02.453Z,5.32
2023-03-30T08:52:30.639Z,4.80
2023-03-30T08:54:58.228Z,4.68
2023-03-30T08:57:48.866Z,4.38
2023-03-30T09:00:20.118Z,4.60
2023-03-30T09:02:53.191Z,4.47
2023-03-30T09:05:29.760Z,4.10
2023-03-30T09:08:21.116Z,5.07
2023-03-30T09:10:56.764Z,5.18
2023-03-30T09:13:28.224Z,4.30
2023-03-30T09:16:14.625Z,4.82
2023-03-30T09:18:44.264Z,4.50
2023-03-30T09:21:12.604Z,4.57
2023-03-30T09:23:40.272Z,4.28
2023-03-30T09:26:13.352Z,4.78
2023-03-30T09:28:58.324Z,5.95
2023-03-30T09:31:36.532Z,4.10
2023-03-30T09:34:08.120Z,4.68
2023-03-30T09:36:50.992Z,4.85
2023-03-30T09:39:19.648Z,4.30
2023-03-30T09:42:05.350Z,4.35
2023-03-30T09:44:40.089Z,4.00
2023-03-30T09:47:20.346Z,4.13
2023-03-30T09:49:47.620Z,4.95
2023-03-30T09:52:24.289Z,3.67
2023-03-30T09:54:51.630Z,4.32
2023-03-30T09:57:32.860Z,4.82
2023-03-30T10:00:01.333Z,4.82
2023-03-30T10:02:31.506Z,5.75
2023-03-30T10:05:03.892Z,5.13
2023-03-30T10:07:36.566Z,4.55
2023-03-30T10:10:34.183Z,3.53
2023-03-30T10:13:09.391Z,4.93
2023-03-30T10:15:39.644Z,4.10
2023-03-30T10:18:23.920Z,4.18
2023-03-30T10:20:53.662Z,4.47
2023-03-30T10:23:23.050Z,4.05
2023-03-30T10:25:52.093Z,4.63
2023-03-30T10:28:31.530Z,3.63
2023-03-30T10:31:03.031Z,4.50
2023-03-30T10:33:31.810Z,3.95
2023-03-30T10:36:00.981Z,4.05
2023-03-30T10:38:33.190Z,4.60
2023-03-30T10:41:22.433Z,4.47
2023-03-30T10:43:50.850Z,4.95
2023-03-30T10:46:22.559Z,4.90
2023-03-30T10:49:02.067Z,4.50
2023-03-30T10:51:43.678Z,5.90
2023-03-30T10:54:17.463Z,4.30
2023-03-30T10:57:19.405Z,5.32
2023-03-30T11:00:12.950Z,6.97
2023-03-30T11:03:04.043Z,4.63
2023-03-30T11:05:35.871Z,4.35
2023-03-30T11:08:06.837Z,4.78
2023-03-30T11:10:59.145Z,5.63
2023-03-30T11:13:36.925Z,6.85
2023-03-30T11:16:18.731Z,4.72
2023-03-30T11:19:03.888Z,5.22
2023-03-30T11:21:51.639Z,4.70
2023-03-30T11:24:21.689Z,5.32
2023-03-30T11:27:07.098Z,6.05
2023-03-30T11:29:59.959Z,5.68
2023-03-30T11:32:33.183Z,5.93
2023-03-30T11:35:10.715Z,6.40
2023-03-30T11:37:48.282Z,6.82
2023-03-30T11:40:24.255Z,7.40
2023-03-30T11:42:54.591Z,6.72
2023-03-30T11:45:21.766Z,6.65
2023-03-30T11:47:58.038Z,6.38
2023-03-30T11:51:05.071Z,7.38
2023-03-30T11:53:48.700Z,7.28
2023-03-30T11:56:20.086Z,6.88
2023-03-30T11:59:00.031Z,5.60
2023-03-30T12:01:50.405Z,6.32
2023-03-30T12:04:28.513Z,6.53
2023-03-30T12:06:58.559Z,7.30
2023-03-30T12:09:28.145Z,6.53
2023-03-30T12:12:15.720Z,5.40
2023-03-30T12:15:02.448Z,5.22
2023-03-30T12:17:35.873Z,5.75
2023-03-30T12:20:15.013Z,5.40
2023-03-30T12:22:51.451Z,4.95
2023-03-30T12:25:28.580Z,5.15
2023-03-30T12:27:58.625Z,5.75
2023-03-30T12:30:41.499Z,5.18
2023-03-30T12:33:15.877Z,5.63
2023-03-30T12:35:48.889Z,5.35
2023-03-30T12:38:21.832Z,6.75
2023-03-30T12:41:15.424Z,5.13
2023-03-30T12:44:03.675Z,5.80
2023-03-30T12:47:04.035Z,5.55
2023-03-30T12:50:21.281Z,6.53
2023-03-30T12:52:48.478Z,5.93
2023-03-30T12:55:37.125Z,5.60
2023-03-30T12:58:13.032Z,5.70
2023-03-30T13:00:51.972Z,5.43
2023-03-30T13:03:36.623Z,4.80
2023-03-30T13:06:06.754Z,5.40
2023-03-30T13:08:40.778Z,5.45
2023-03-30T13:11:13.353Z,6.93
2023-03-30T13:13:51.653Z,5.43
2023-03-30T13:16:53.291Z,5.00
2023-03-30T13:19:32.252Z,6.68
2023-03-30T13:22:28.225Z,5.20
2023-03-30T13:25:00.763Z,6.03
2023-03-30T13:27:33.168Z,5.03
2023-03-30T13:30:11.969Z,5.90
2023-03-30T13:32:57.787Z,6.22
2023-03-30T13:35:46.716Z,5.68
2023-03-30T13:38:35.370Z,7.43
2023-03-30T13:41:33.173Z,6.18
2023-03-30T13:44:19.034Z,7.13
2023-03-30T13:47:25.208Z,6.15
2023-03-30T13:50:00.149Z,9.13
2023-03-30T13:52:49.023Z,7.07
2023-03-30T13:55:28.116Z,8.25
2023-03-30T13:58:04.678Z,7.47
2023-03-30T14:00:50.291Z,7.43
2023-03-30T14:03:30.791Z,6.53
2023-03-30T14:06:04.146Z,7.28
2023-03-30T14:08:37.045Z,6.55
2023-03-30T14:11:21.948Z,6.85
2023-03-30T14:13:52.832Z,6.47
2023-03-30T14:16:31.692Z,6.43
2023-03-30T14:19:22.878Z,6.30
2023-03-30T14:21:53.762Z,7.10
2023-03-30T14:24:31.584Z,7.45
2023-03-30T14:27:05.308Z,6.82
2023-03-30T14:29:32.595Z,8.20
2023-03-30T14:34:33.884Z,7.00
2023-03-30T14:37:06.912Z,6.90
2023-03-30T14:39:40.972Z,8.25
2023-03-30T14:42:20.148Z,5.95
2023-03-30T14:44:50.495Z,7.97
2023-03-30T14:47:26.792Z,6.72
2023-03-30T14:49:58.037Z,9.38
2023-03-30T14:52:30.129Z,6.88
2023-03-30T14:55:07.219Z,6.25
2023-03-30T14:57:39.496Z,5.93
2023-03-30T15:00:22.539Z,6.22
2023-03-30T15:02:56.787Z,6.10
2023-03-30T15:05:28.637Z,6.38
2023-03-30T15:07:56.224Z,6.55
2023-03-30T15:10:36.437Z,7.13
2023-03-30T15:13:07.468Z,6.25
2023-03-30T15:15:35.858Z,5.90
2023-03-30T15:18:05.433Z,7.18
2023-03-30T15:20:32.972Z,6.10
2023-03-30T15:23:01.140Z,6.28
2023-03-30T15:25:34.050Z,6.43
2023-03-30T15:28:06.550Z,7.28
2023-03-30T15:30:40.404Z,7.53
2023-03-30T15:33:24.042Z,7.05
2023-03-30T15:35:53.144Z,7.80
2023-03-30T15:38:34.183Z,7.75
2023-03-30T15:41:02.444Z,8.02
2023-03-30T15:43:33.533Z,7.15
2023-03-30T15:46:14.420Z,7.50
2023-03-30T15:48:49.090Z,7.13
2023-03-30T15:51:25.252Z,6.55
2023-03-30T15:54:00.892Z,6.90
2023-03-30T15:56:38.675Z,6.60
2023-03-30T15:59:14.985Z,7.57
2023-03-30T16:01:56.357Z,6.00
2023-03-30T16:04:24.985Z,7.75
2023-03-30T16:06:52.881Z,7.65
2023-03-30T16:09:20.227Z,8.25
2023-03-30T16:11:47.510Z,7.13
2023-03-30T16:14:17.975Z,7.60
2023-03-30T16:16:46.488Z,7.65
2023-03-30T16:19:16.308Z,8.18
2023-03-30T16:21:45.295Z,9.68
2023-03-30T16:24:13.855Z,7.55
2023-03-30T16:26:41.032Z,7.25
2023-03-30T16:29:19.954Z,7.90
2023-03-30T16:31:48.105Z,6.50
2023-03-30T16:34:15.506Z,6.60
2023-03-30T16:36:42.708Z,8.13
2023-03-30T16:39:20.716Z,7.00
2023-03-30T16:41:49.494Z,8.15
2023-03-30T16:44:18.325Z,6.80
2023-03-30T16:46:46.785Z,7.68
2023-03-30T16:49:24.907Z,7.20
2023-03-30T16:51:55.289Z,7.63
2023-03-30T16:54:32.091Z,7.85
2023-03-30T16:57:01.378Z,9.77
2023-03-30T16:59:31.271Z,9.38
2023-03-30T17:01:59.476Z,9.88
2023-03-30T17:04:26.956Z,10.95
2023-03-30T17:06:55.017Z,11.43
2023-03-30T17:09:22.717Z,12.70
2023-03-30T17:11:50.411Z,11.32
2023-03-30T17:14:18.234Z,11.02
2023-03-30T17:16:45.498Z,9.30
2023-03-30T17:19:13.957Z,8.07
2023-03-30T17:21:43.414Z,8.63
2023-03-30T17:24:12.615Z,8.57
2023-03-30T17:26:40.957Z,8.27
2023-03-30T17:29:10.213Z,8.25
2023-03-30T17:31:38.664Z,8.98
2023-03-30T17:34:07.094Z,7.80
2023-03-30T17:36:34.397Z,8.20
2023-03-30T17:39:04.878Z,7.82
2023-03-30T17:41:34.206Z,8.18
2023-03-30T17:44:01.439Z,7.75
2023-03-30T17:46:29.100Z,8.27
2023-03-30T17:48:57.938Z,8.50
2023-03-30T17:51:25.462Z,8.85
2023-03-30T17:53:52.825Z,8.70
2023-03-30T17:56:20.229Z,15.63
2023-03-30T17:58:49.731Z,8.65
2023-03-30T18:01:17.316Z,8.40
2023-03-30T18:03:45.050Z,9.10
2023-03-30T18:06:12.968Z,8.27
2023-03-30T18:08:40.554Z,8.95
2023-03-30T18:11:07.969Z,8.20
2023-03-30T18:13:36.143Z,8.73
2023-03-30T18:16:03.500Z,8.48
2023-03-30T18:18:31.701Z,6.90
2023-03-30T18:21:02.857Z,7.32
2023-03-30T18:23:33.366Z,7.72
2023-03-30T18:26:01.975Z,7.65
2023-03-30T18:28:31.612Z,7.30
2023-03-30T18:31:00.904Z,7.40
2023-03-30T18:33:28.726Z,7.72
2023-03-30T18:36:04.996Z,7.93
2023-03-30T18:38:33.451Z,9.00
2023-03-30T18:41:01.474Z,7.15
2023-03-30T18:43:29.090Z,7.45
2023-03-30T18:46:01.518Z,8.07
2023-03-30T18:48:29.411Z,8.73
2023-03-30T18:50:57.478Z,7.80
2023-03-30T18:53:26.942Z,9.55
2023-03-30T18:55:57.975Z,8.45
2023-03-30T18:58:30.958Z,10.32
2023-03-30T19:00:58.231Z,10.02
2023-03-30T19:03:27.944Z,8.52
2023-03-30T19:05:55.422Z,8.35
2023-03-30T19:08:25.156Z,9.23
2023-03-30T19:10:55.117Z,9.55
2023-03-30T19:13:24.199Z,9.30
2023-03-30T19:15:52.378Z,8.18
2023-03-30T19:18:20.190Z,10.13
2023-03-30T19:20:49.879Z,8.15
2023-03-30T19:23:18.860Z,8.00
2023-03-30T19:25:46.311Z,8.75
2023-03-30T19:28:15.318Z,7.88
2023-03-30T19:30:43.115Z,7.50
2023-03-30T19:33:15.146Z,7.78
2023-03-30T19:35:46.443Z,7.15
2023-03-30T19:38:14.689Z,7.95
2023-03-30T19:40:42.474Z,7.60
2023-03-30T19:43:10.060Z,7.72
2023-03-30T19:45:37.836Z,7.35
2023-03-30T19:48:05.717Z,8.15
2023-03-30T19:50:32.951Z,6.80
2023-03-30T19:53:00.217Z,8.15
2023-03-30T19:55:27.706Z,7.18
2023-03-30T19:57:55.037Z,7.47
2023-03-30T20:00:22.640Z,7.47
2023-03-30T20:02:52.372Z,7.82
2023-03-30T20:05:21.082Z,7.50
2023-03-30T20:07:49.265Z,7.72
2023-03-30T20:10:20.408Z,7.60
2023-03-30T20:12:49.416Z,6.97
2023-03-30T20:15:18.033Z,7.63
2023-03-30T20:17:45.702Z,7.75
2023-03-30T20:20:16.851Z,6.95
2023-03-30T20:22:44.659Z,7.38
2023-03-30T20:25:14.138Z,8.98
2023-03-30T20:27:41.827Z,7.85
2023-03-30T20:30:09.986Z,7.25
2023-03-30T20:32:37.212Z,7.10
2023-03-30T20:35:05.700Z,7.70
2023-03-30T20:37:33.531Z,8.23
2023-03-30T20:40:05.200Z,8.02
2023-03-30T20:42:32.961Z,7.15
2023-03-30T20:45:01.220Z,8.30
2023-03-30T20:47:30.948Z,6.80
2023-03-30T20:49:59.168Z,8.35
2023-03-30T20:52:27.419Z,7.30
2023-03-30T20:54:56.184Z,7.18
2023-03-30T20:57:24.494Z,8.07
2023-03-30T20:59:53.974Z,8.32
